Time;durP1;ratioP1;P1;durP2;ratioP2;P2;SDS_P1;SDS_P2;PMS_P1;PMS_P2;Temp;Humidity;BMP_temperature;BMP_pressure;BME280_temperature;BME280_humidity;BME280_pressure;Samples;Min_cycle;Max_cycle;Signal;HPM_P1;HPM_P2
2021/06/25 00:00:52;;;;;;;13.00;11.70;;;;;;;;;;5014269;28;20478;-61
2021/06/25 00:03:19;;;;;;;12.10;10.97;;;;;;;;;;5014073;28;20785;-61
2021/06/25 00:05:47;;;;;;;11.97;10.83;;;;;;;;;;5013780;28;20457;-61
2021/06/25 00:08:15;;;;;;;12.43;11.17;;;;;;;;;;5013467;28;20942;-61
2021/06/25 00:10:43;;;;;;;13.27;11.50;;;;;;;;;;5013566;28;20462;-61
2021/06/25 00:13:10;;;;;;;11.80;10.60;;;;;;;;;;5014659;28;20493;-61
2021/06/25 00:15:37;;;;;;;12.17;11.10;;;;;;;;;;5013537;28;20454;-61
2021/06/25 00:18:05;;;;;;;11.57;10.43;;;;;;;;;;5013453;28;20449;-61
2021/06/25 00:20:32;;;;;;;13.20;11.90;;;;;;;;;;5013409;28;20488;-61
2021/06/25 00:22:59;;;;;;;12.90;11.80;;;;;;;;;;5013876;28;20493;-61
2021/06/25 00:25:28;;;;;;;12.43;11.07;;;;;;;;;;5017536;28;20568;-61
2021/06/25 00:27:55;;;;;;;17.90;10.90;;;;;;;;;;5017164;28;20996;-61
2021/06/25 00:30:23;;;;;;;13.00;10.80;;;;;;;;;;5017071;28;20474;-61
2021/06/25 00:32:50;;;;;;;12.37;10.60;;;;;;;;;;5017011;28;20532;-61
2021/06/25 00:35:17;;;;;;;12.40;11.30;;;;;;;;;;5017339;28;20445;-61
2021/06/25 00:37:45;;;;;;;12.87;11.67;;;;;;;;;;5017277;28;20854;-61
2021/06/25 00:40:13;;;;;;;15.20;11.20;;;;;;;;;;5016894;28;20465;-61
2021/06/25 00:42:41;;;;;;;13.40;10.77;;;;;;;;;;5017224;28;20442;-61
2021/06/25 00:45:16;;;;;;;14.87;11.50;;;;;;;;;;5017282;28;20499;-61
2021/06/25 00:47:44;;;;;;;13.00;11.10;;;;;;;;;;5017197;28;20492;-61
2021/06/25 00:50:12;;;;;;;11.50;9.53;;;;;;;;;;5017014;28;20473;-61
2021/06/25 00:52:39;;;;;;;11.97;10.67;;;;;;;;;;5016951;28;20505;-61
2021/06/25 00:55:07;;;;;;;11.60;10.50;;;;;;;;;;5016774;28;20938;-61
2021/06/25 00:57:34;;;;;;;10.93;9.83;;;;;;;;;;5016960;28;20450;-61
2021/06/25 01:00:03;;;;;;;10.67;9.67;;;;;;;;;;5016721;28;20480;-61
2021/06/25 01:02:30;;;;;;;9.10;8.20;;;;;;;;;;5016890;28;20809;-61
2021/06/25 01:04:57;;;;;;;9.50;8.60;;;;;;;;;;5016766;28;20568;-61
2021/06/25 01:07:25;;;;;;;10.00;9.00;;;;;;;;;;5016780;28;20507;-61
2021/06/25 01:09:52;;;;;;;10.77;9.70;;;;;;;;;;5016847;28;20469;-61
2021/06/25 01:12:20;;;;;;;9.63;8.60;;;;;;;;;;5016572;28;20450;-61
2021/06/25 01:14:47;;;;;;;11.70;9.33;;;;;;;;;;5016422;28;20500;-61
2021/06/25 01:17:30;;;;;;;10.33;9.30;;;;;;;;;;5016575;28;20446;-61
2021/06/25 01:19:57;;;;;;;10.00;9.13;;;;;;;;;;5016585;28;20561;-61
2021/06/25 01:22:34;;;;;;;10.70;9.60;;;;;;;;;;5016482;28;20469;-61
2021/06/25 01:25:01;;;;;;;11.17;10.10;;;;;;;;;;5016171;28;20920;-61
2021/06/25 01:27:28;;;;;;;11.50;10.30;;;;;;;;;;5016123;28;20508;-60
2021/06/25 01:29:57;;;;;;;10.63;9.67;;;;;;;;;;5016076;28;20488;-60
2021/06/25 01:32:24;;;;;;;11.77;10.60;;;;;;;;;;5015987;28;20477;-61
2021/06/25 01:34:51;;;;;;;12.93;9.90;;;;;;;;;;5015426;28;20532;-61
2021/06/25 01:37:19;;;;;;;11.23;10.10;;;;;;;;;;5016134;28;20446;-61
2021/06/25 01:39:50;;;;;;;12.03;10.87;;;;;;;;;;5015693;28;20498;-62
2021/06/25 01:42:18;;;;;;;11.33;10.13;;;;;;;;;;5016172;28;20451;-61
2021/06/25 01:44:46;;;;;;;14.27;10.47;;;;;;;;;;5015735;28;20474;-61
2021/06/25 01:47:14;;;;;;;10.70;9.83;;;;;;;;;;5016095;28;20474;-61
2021/06/25 01:49:41;;;;;;;10.47;9.47;;;;;;;;;;5015894;28;20470;-61
2021/06/25 01:52:09;;;;;;;11.27;10.17;;;;;;;;;;5015918;28;20450;-61
2021/06/25 01:54:36;;;;;;;11.30;10.20;;;;;;;;;;5016380;28;20481;-61
2021/06/25 01:57:05;;;;;;;12.23;10.60;;;;;;;;;;5015875;28;20872;-61
2021/06/25 01:59:32;;;;;;;10.73;9.73;;;;;;;;;;5015471;28;20493;-61
2021/06/25 02:02:00;;;;;;;13.03;11.17;;;;;;;;;;5017626;28;20788;-61
2021/06/25 02:04:27;;;;;;;12.90;10.27;;;;;;;;;;5016556;28;20450;-61
2021/06/25 02:06:54;;;;;;;12.60;11.40;;;;;;;;;;5015765;28;20832;-61
2021/06/25 02:09:21;;;;;;;11.90;10.80;;;;;;;;;;5015505;28;20993;-61
2021/06/25 02:11:49;;;;;;;12.40;10.50;;;;;;;;;;5015987;28;20876;-62
2021/06/25 02:14:18;;;;;;;12.30;11.07;;;;;;;;;;5015631;28;20481;-61
2021/06/25 02:16:45;;;;;;;12.00;10.90;;;;;;;;;;5015831;28;20508;-61
2021/06/25 02:19:12;;;;;;;13.23;10.87;;;;;;;;;;5015454;28;20469;-61
2021/06/25 02:21:39;;;;;;;12.93;11.73;;;;;;;;;;5015812;28;20446;-61
2021/06/25 02:24:07;;;;;;;12.10;10.90;;;;;;;;;;5015758;28;20438;-61
2021/06/25 02:26:34;;;;;;;13.10;11.80;;;;;;;;;;5015207;28;20500;-61
2021/06/25 02:29:02;;;;;;;13.80;12.50;;;;;;;;;;5015041;28;20857;-62
2021/06/25 02:31:30;;;;;;;12.40;11.30;;;;;;;;;;5015476;28;20450;-61
2021/06/25 02:33:58;;;;;;;14.37;12.97;;;;;;;;;;5014806;28;20509;-60
2021/06/25 02:36:25;;;;;;;13.47;11.80;;;;;;;;;;5014895;28;20456;-61
2021/06/25 02:38:52;;;;;;;15.13;12.27;;;;;;;;;;5014712;28;20869;-61
2021/06/25 02:41:20;;;;;;;14.13;12.73;;;;;;;;;;5015253;28;20445;-61
2021/06/25 02:43:47;;;;;;;13.73;12.30;;;;;;;;;;5014926;28;20960;-61
2021/06/25 02:46:15;;;;;;;16.60;12.97;;;;;;;;;;5014432;28;20441;-61
2021/06/25 02:48:43;;;;;;;13.27;11.80;;;;;;;;;;5014523;28;20856;-60
2021/06/25 02:51:10;;;;;;;12.70;11.40;;;;;;;;;;5014804;28;20470;-61
2021/06/25 02:53:38;;;;;;;12.40;11.30;;;;;;;;;;5017982;28;20482;-61
2021/06/25 02:56:05;;;;;;;12.03;10.93;;;;;;;;;;5017743;28;20508;-60
2021/06/25 02:58:32;;;;;;;13.03;11.93;;;;;;;;;;5018024;28;20525;-61
2021/06/25 03:01:00;;;;;;;14.83;11.57;;;;;;;;;;5018224;28;20543;-61
2021/06/25 03:03:27;;;;;;;16.80;12.87;;;;;;;;;;5019141;28;20442;-61
2021/06/25 03:05:56;;;;;;;12.90;11.63;;;;;;;;;;5022226;28;20442;-61
2021/06/25 03:08:23;;;;;;;13.13;11.53;;;;;;;;;;5020268;28;20453;-61
2021/06/25 03:10:51;;;;;;;14.50;12.00;;;;;;;;;;5016730;28;20481;-61
2021/06/25 03:13:18;;;;;;;13.73;12.43;;;;;;;;;;5014929;28;20454;-61
2021/06/25 03:15:45;;;;;;;12.30;11.00;;;;;;;;;;5014841;28;20818;-61
2021/06/25 03:18:13;;;;;;;12.90;11.60;;;;;;;;;;5014281;28;20446;-61
2021/06/25 03:20:40;;;;;;;14.00;12.70;;;;;;;;;;5014395;28;20868;-61
2021/06/25 03:23:09;;;;;;;12.77;11.60;;;;;;;;;;5014281;28;20442;-61
2021/06/25 03:25:37;;;;;;;12.47;11.37;;;;;;;;;;5014295;28;20449;-61
2021/06/25 03:28:04;;;;;;;13.30;12.00;;;;;;;;;;5014143;28;20453;-61
2021/06/25 03:30:32;;;;;;;13.37;11.67;;;;;;;;;;5014395;28;20516;-61
2021/06/25 03:32:59;;;;;;;13.03;11.50;;;;;;;;;;5014961;28;20512;-60
2021/06/25 03:35:27;;;;;;;12.67;10.93;;;;;;;;;;5014813;28;20556;-60
2021/06/25 03:37:54;;;;;;;15.10;12.60;;;;;;;;;;5014982;28;20461;-60
2021/06/25 03:40:23;;;;;;;12.87;10.67;;;;;;;;;;5014819;28;20470;-61
2021/06/25 03:42:50;;;;;;;12.67;11.47;;;;;;;;;;5015067;28;20454;-61
2021/06/25 03:45:17;;;;;;;16.60;11.33;;;;;;;;;;5014992;28;20489;-60
2021/06/25 03:47:45;;;;;;;12.43;10.83;;;;;;;;;;5014972;28;20854;-61
2021/06/25 03:50:13;;;;;;;11.90;10.70;;;;;;;;;;5014190;28;20981;-60
2021/06/25 03:52:40;;;;;;;11.93;10.87;;;;;;;;;;5027054;28;20961;-61
2021/06/25 03:55:09;;;;;;;11.40;10.30;;;;;;;;;;5014614;28;20540;-61
2021/06/25 03:57:38;;;;;;;11.60;10.50;;;;;;;;;;5014223;28;20461;-60
2021/06/25 04:00:06;;;;;;;10.90;9.90;;;;;;;;;;5014126;28;20532;-60
2021/06/25 04:02:33;;;;;;;10.80;9.60;;;;;;;;;;5014186;28;20454;-60
2021/06/25 04:08:19;;;;;;;10.77;9.63;;;;;;;;;;5113607;27;20574;-61
2021/06/25 04:10:46;;;;;;;11.60;9.60;;;;;;;;;;5114506;28;20489;-61
2021/06/25 04:13:13;;;;;;;11.77;10.50;;;;;;;;;;5112161;28;20441;-61
2021/06/25 04:15:41;;;;;;;10.73;9.83;;;;;;;;;;5111853;28;20495;-61
2021/06/25 04:18:08;;;;;;;20.40;14.27;;;;;;;;;;5111762;28;20801;-60
2021/06/25 04:20:35;;;;;;;15.63;11.90;;;;;;;;;;5111956;28;20506;-61
2021/06/25 04:23:03;;;;;;;12.93;11.73;;;;;;;;;;5111554;28;20929;-60
2021/06/25 04:25:31;;;;;;;11.23;10.20;;;;;;;;;;5112483;28;20494;-61
2021/06/25 04:27:58;;;;;;;10.60;9.50;;;;;;;;;;5111439;28;20523;-62
2021/06/25 04:30:26;;;;;;;15.47;11.60;;;;;;;;;;5111045;28;20465;-61
2021/06/25 04:32:53;;;;;;;20.07;13.67;;;;;;;;;;5111273;28;20488;-60
2021/06/25 04:35:21;;;;;;;12.33;11.13;;;;;;;;;;5111302;28;20438;-61
2021/06/25 04:37:48;;;;;;;17.90;11.47;;;;;;;;;;5111444;28;20433;-60
2021/06/25 04:40:15;;;;;;;11.90;9.90;;;;;;;;;;5111218;28;20453;-60
2021/06/25 04:42:45;;;;;;;10.50;9.50;;;;;;;;;;5111592;28;20502;-61
2021/06/25 04:45:13;;;;;;;10.90;9.80;;;;;;;;;;5111736;28;20437;-61
2021/06/25 04:47:41;;;;;;;14.20;9.10;;;;;;;;;;5111007;28;20484;-62
2021/06/25 04:50:09;;;;;;;11.03;9.93;;;;;;;;;;5110146;28;21049;-60
2021/06/25 04:52:36;;;;;;;11.27;10.03;;;;;;;;;;5110529;28;20442;-61
2021/06/25 04:55:03;;;;;;;15.80;11.20;;;;;;;;;;5111871;28;20446;-61
2021/06/25 04:57:30;;;;;;;22.73;11.90;;;;;;;;;;5110282;28;20438;-60
2021/06/25 04:59:59;;;;;;;16.60;10.27;;;;;;;;;;5111732;28;20472;-60
2021/06/25 05:02:26;;;;;;;10.10;9.10;;;;;;;;;;5110085;28;20506;-61
2021/06/25 05:04:54;;;;;;;9.70;8.80;;;;;;;;;;5110386;28;20490;-61
2021/06/25 05:07:21;;;;;;;8.60;7.80;;;;;;;;;;5109894;28;20547;-61
2021/06/25 05:09:48;;;;;;;11.07;10.00;;;;;;;;;;5110770;28;20457;-61
2021/06/25 05:12:15;;;;;;;10.73;9.73;;;;;;;;;;5109831;28;20862;-60
2021/06/25 05:14:43;;;;;;;19.03;10.17;;;;;;;;;;5110063;28;20445;-61
2021/06/25 05:17:11;;;;;;;10.77;9.80;;;;;;;;;;5110203;28;20843;-60
2021/06/25 05:19:39;;;;;;;11.00;9.93;;;;;;;;;;5096451;28;20520;-60
2021/06/25 05:22:06;;;;;;;9.80;8.90;;;;;;;;;;5096491;28;20491;-61
2021/06/25 05:24:33;;;;;;;10.10;9.20;;;;;;;;;;5096000;28;20439;-61
2021/06/25 05:27:00;;;;;;;9.80;8.97;;;;;;;;;;5096887;28;20516;-61
2021/06/25 05:29:27;;;;;;;10.90;9.90;;;;;;;;;;5095736;28;20471;-60
2021/06/25 05:31:55;;;;;;;11.50;10.30;;;;;;;;;;5096130;28;20495;-60
2021/06/25 05:34:24;;;;;;;11.13;9.80;;;;;;;;;;5096190;28;20457;-62
2021/06/25 05:36:51;;;;;;;10.90;9.80;;;;;;;;;;5095941;28;20867;-61
2021/06/25 05:39:18;;;;;;;12.50;11.30;;;;;;;;;;5095594;28;20590;-60
2021/06/25 05:41:45;;;;;;;11.07;10.03;;;;;;;;;;5097631;28;20449;-61
2021/06/25 05:44:13;;;;;;;12.80;11.60;;;;;;;;;;5096713;28;20457;-60
2021/06/25 05:46:40;;;;;;;11.83;10.63;;;;;;;;;;5095899;28;20477;-61
2021/06/25 05:49:07;;;;;;;13.03;11.57;;;;;;;;;;5095472;28;20442;-61
2021/06/25 05:51:36;;;;;;;13.17;11.67;;;;;;;;;;5095516;28;20458;-61
2021/06/25 05:54:03;;;;;;;12.10;10.97;;;;;;;;;;5095827;28;20446;-61
2021/06/25 05:56:31;;;;;;;13.60;11.37;;;;;;;;;;5095253;28;20857;-60
2021/06/25 05:58:58;;;;;;;11.00;9.97;;;;;;;;;;5095322;28;20450;-63
2021/06/25 06:01:25;;;;;;;12.80;11.53;;;;;;;;;;5095675;28;20446;-59
2021/06/25 06:03:52;;;;;;;14.40;10.17;;;;;;;;;;5095158;28;20818;-60
2021/06/25 06:06:20;;;;;;;12.30;11.10;;;;;;;;;;5094696;28;20466;-61
2021/06/25 06:08:48;;;;;;;12.40;11.40;;;;;;;;;;5095165;28;20479;-59
2021/06/25 06:11:16;;;;;;;11.63;10.50;;;;;;;;;;5095298;28;20446;-61
2021/06/25 06:13:43;;;;;;;13.70;11.00;;;;;;;;;;5095651;28;20444;-61
2021/06/25 06:16:10;;;;;;;11.23;10.17;;;;;;;;;;5095470;28;20446;-60
2021/06/25 06:18:43;;;;;;;12.33;11.07;;;;;;;;;;5095250;28;20927;-61
2021/06/25 06:21:12;;;;;;;11.73;10.53;;;;;;;;;;5095261;28;20508;-61
2021/06/25 06:32:00;;;;;;;11.10;10.00;;;;;;;;;;5100421;28;20396;-60
2021/06/25 06:34:31;;;;;;;11.17;9.97;;;;;;;;;;5099148;28;20428;-60
2021/06/25 06:36:58;;;;;;;13.77;11.20;;;;;;;;;;5095033;28;20439;-61
2021/06/25 06:39:25;;;;;;;12.27;10.10;;;;;;;;;;5094703;28;20513;-61
2021/06/25 06:41:54;;;;;;;10.40;9.40;;;;;;;;;;5094818;28;20443;-59
2021/06/25 06:44:21;;;;;;;11.93;10.83;;;;;;;;;;5094491;28;20436;-60
2021/06/25 06:46:49;;;;;;;11.57;10.40;;;;;;;;;;5096075;28;20443;-61
2021/06/25 06:49:16;;;;;;;15.13;12.87;;;;;;;;;;5095038;28;21037;-61
2021/06/25 06:51:43;;;;;;;11.83;10.63;;;;;;;;;;5095120;28;20439;-61
2021/06/25 06:54:11;;;;;;;13.03;11.70;;;;;;;;;;5096204;28;20456;-61
2021/06/25 06:56:38;;;;;;;15.47;11.53;;;;;;;;;;5095431;28;20541;-60
2021/06/25 06:59:07;;;;;;;13.97;12.67;;;;;;;;;;5095428;28;20505;-61
2021/06/25 07:01:34;;;;;;;12.43;11.30;;;;;;;;;;5096716;28;20438;-59
2021/06/25 07:04:02;;;;;;;13.37;12.07;;;;;;;;;;5097343;28;20603;-61
2021/06/25 07:06:29;;;;;;;12.60;11.50;;;;;;;;;;5096623;28;20987;-60
2021/06/25 07:08:56;;;;;;;14.30;13.10;;;;;;;;;;5095571;28;20458;-61
2021/06/25 07:11:24;;;;;;;13.97;12.53;;;;;;;;;;5094801;28;20443;-60
2021/06/25 07:13:52;;;;;;;13.80;12.40;;;;;;;;;;5094839;28;20492;-59
2021/06/25 07:16:20;;;;;;;13.40;11.70;;;;;;;;;;5094372;28;20452;-58
2021/06/25 07:18:48;;;;;;;14.63;11.37;;;;;;;;;;5094743;28;20452;-61
2021/06/25 07:21:15;;;;;;;13.30;12.10;;;;;;;;;;5095117;28;20443;-61
2021/06/25 07:23:42;;;;;;;14.27;12.97;;;;;;;;;;5094181;28;20567;-60
2021/06/25 07:26:09;;;;;;;14.70;13.30;;;;;;;;;;5094088;28;20931;-61
2021/06/25 07:28:37;;;;;;;14.03;12.73;;;;;;;;;;5094001;28;20479;-61
2021/06/25 07:31:04;;;;;;;14.70;13.30;;;;;;;;;;5097807;28;20992;-63
2021/06/25 07:33:33;;;;;;;15.87;14.37;;;;;;;;;;5097159;28;20507;-61
2021/06/25 07:36:00;;;;;;;16.60;15.07;;;;;;;;;;5094059;28;20453;-61
2021/06/25 07:38:28;;;;;;;16.20;13.80;;;;;;;;;;5094142;28;20508;-61
2021/06/25 07:40:55;;;;;;;14.30;12.90;;;;;;;;;;5093775;28;20527;-61
2021/06/25 07:43:22;;;;;;;14.87;13.37;;;;;;;;;;5093642;28;20922;-60
2021/06/25 07:45:49;;;;;;;16.17;14.57;;;;;;;;;;5093327;28;20465;-60
2021/06/25 07:48:17;;;;;;;12.60;11.33;;;;;;;;;;5093824;28;20478;-60
2021/06/25 07:50:45;;;;;;;12.90;11.70;;;;;;;;;;5093354;28;20461;-61
2021/06/25 07:53:13;;;;;;;11.70;10.60;;;;;;;;;;5093311;28;20449;-60
2021/06/25 07:55:43;;;;;;;13.90;12.60;;;;;;;;;;5093723;28;20446;-61
2021/06/25 07:58:12;;;;;;;13.90;12.80;;;;;;;;;;5093795;28;20477;-61
2021/06/25 08:00:39;;;;;;;16.47;14.97;;;;;;;;;;5093485;28;20467;-61
2021/06/25 08:03:07;;;;;;;14.10;12.80;;;;;;;;;;5094452;28;20537;-60
2021/06/25 08:05:34;;;;;;;14.70;13.40;;;;;;;;;;5095145;28;20926;-60
2021/06/25 08:08:03;;;;;;;13.80;12.60;;;;;;;;;;5094505;28;20474;-62
2021/06/25 08:10:30;;;;;;;14.77;13.57;;;;;;;;;;5093640;28;20475;-60
2021/06/25 08:12:57;;;;;;;14.57;13.30;;;;;;;;;;5093353;28;20442;-61
2021/06/25 08:15:25;;;;;;;15.17;13.70;;;;;;;;;;5092824;28;20441;-60
2021/06/25 08:17:52;;;;;;;14.40;13.10;;;;;;;;;;5093296;28;20442;-60
2021/06/25 08:20:20;;;;;;;13.57;12.47;;;;;;;;;;5093969;28;20466;-61
2021/06/25 08:22:47;;;;;;;14.83;13.30;;;;;;;;;;5095608;28;20453;-59
2021/06/25 08:25:17;;;;;;;13.37;12.17;;;;;;;;;;5097395;28;20491;-61
2021/06/25 08:27:44;;;;;;;13.53;12.23;;;;;;;;;;5096296;28;20560;-60
2021/06/25 08:30:12;;;;;;;14.37;12.97;;;;;;;;;;5093673;28;20515;-61
2021/06/25 08:32:40;;;;;;;15.87;14.20;;;;;;;;;;5092827;28;20449;-61
2021/06/25 08:35:08;;;;;;;15.00;13.67;;;;;;;;;;5093071;28;20453;-60
2021/06/25 08:37:35;;;;;;;14.30;12.83;;;;;;;;;;5092752;28;20973;-61
2021/06/25 08:40:04;;;;;;;14.33;12.97;;;;;;;;;;5092829;28;20990;-60
2021/06/25 08:42:33;;;;;;;13.40;12.10;;;;;;;;;;5095615;28;20819;-59
2021/06/25 08:45:00;;;;;;;14.87;13.37;;;;;;;;;;5097211;28;20468;-60
2021/06/25 08:47:28;;;;;;;14.50;13.20;;;;;;;;;;5094223;28;20525;-61
2021/06/25 08:49:55;;;;;;;15.30;13.93;;;;;;;;;;5093345;28;20465;-61
2021/06/25 08:52:23;;;;;;;16.27;14.70;;;;;;;;;;5093247;28;20435;-60
2021/06/25 08:54:50;;;;;;;16.37;14.67;;;;;;;;;;5096597;28;20504;-61
2021/06/25 08:57:17;;;;;;;15.10;13.70;;;;;;;;;;5097483;28;20473;-61
2021/06/25 08:59:47;;;;;;;16.23;14.60;;;;;;;;;;5096751;28;20467;-60
2021/06/25 09:02:15;;;;;;;15.67;14.37;;;;;;;;;;5097203;28;20523;-60
2021/06/25 09:04:43;;;;;;;16.17;14.47;;;;;;;;;;5097115;28;20474;-60
2021/06/25 09:07:11;;;;;;;16.00;14.50;;;;;;;;;;5096781;28;20894;-59
2021/06/25 09:09:43;;;;;;;23.20;14.87;;;;;;;;;;5096367;28;21011;-60
2021/06/25 09:12:12;;;;;;;16.40;14.60;;;;;;;;;;5096399;28;20576;-59
2021/06/25 09:14:57;;;;;;;16.93;14.80;;;;;;;;;;5096514;28;20450;-59
2021/06/25 09:17:26;;;;;;;17.03;15.33;;;;;;;;;;5086647;28;20526;-59
2021/06/25 09:19:53;;;;;;;17.17;15.27;;;;;;;;;;5096327;28;21026;-59
2021/06/25 09:22:21;;;;;;;15.80;14.30;;;;;;;;;;5096414;28;20446;-59
2021/06/25 09:25:00;;;;;;;15.60;14.10;;;;;;;;;;5096634;28;20500;-59
2021/06/25 09:27:28;;;;;;;15.77;14.30;;;;;;;;;;5095746;28;20473;-59
2021/06/25 09:29:56;;;;;;;17.27;15.60;;;;;;;;;;5095972;28;20523;-59
2021/06/25 09:32:35;;;;;;;16.37;14.83;;;;;;;;;;5095776;28;20544;-59
2021/06/25 09:35:12;;;;;;;15.70;14.30;;;;;;;;;;5095561;28;20612;-60
2021/06/25 09:37:41;;;;;;;17.53;15.93;;;;;;;;;;5095444;28;20934;-60
2021/06/25 09:40:10;;;;;;;17.20;15.60;;;;;;;;;;5095796;28;20477;-60
2021/06/25 09:42:39;;;;;;;16.93;15.33;;;;;;;;;;5095503;28;20495;-60
2021/06/25 09:45:07;;;;;;;19.03;16.77;;;;;;;;;;5095919;28;20446;-59
2021/06/25 09:47:35;;;;;;;19.10;17.30;;;;;;;;;;5100939;28;20442;-59
2021/06/25 09:50:08;;;;;;;18.73;16.93;;;;;;;;;;5103308;28;20462;-60
2021/06/25 09:52:50;;;;;;;19.40;17.47;;;;;;;;;;5097093;28;20442;-61
2021/06/25 09:55:18;;;;;;;20.30;18.30;;;;;;;;;;5095647;28;20817;-61
2021/06/25 09:58:10;;;;;;;21.23;19.13;;;;;;;;;;5095601;28;20446;-61
2021/06/25 10:03:28;;;;;;;23.97;20.40;;;;;;;;;;5095724;28;20426;-61
2021/06/25 10:06:07;;;;;;;28.20;23.70;;;;;;;;;;5094868;28;20529;-58
2021/06/25 10:08:34;;;;;;;28.75;25.85;;;;;;;;;;5094603;28;20452;-61
2021/06/25 10:11:03;;;;;;;27.10;24.40;;;;;;;;;;5095144;28;20273;-61
2021/06/25 10:13:31;;;;;;;26.47;23.70;;;;;;;;;;5095266;28;20449;-62
2021/06/25 10:15:59;;;;;;;29.07;26.07;;;;;;;;;;5095340;28;20446;-61
2021/06/25 10:18:27;;;;;;;25.30;22.80;;;;;;;;;;5095463;28;20793;-62
2021/06/25 10:20:55;;;;;;;28.07;25.17;;;;;;;;;;5095453;28;20543;-62
2021/06/25 10:23:24;;;;;;;29.27;25.87;;;;;;;;;;5095418;28;20473;-63
2021/06/25 10:25:52;;;;;;;33.33;24.73;;;;;;;;;;5094847;28;20495;-63
2021/06/25 10:28:20;;;;;;;27.80;25.00;;;;;;;;;;5095031;28;20855;-63
2021/06/25 10:30:48;;;;;;;28.00;23.73;;;;;;;;;;5095266;28;20524;-63
2021/06/25 10:33:15;;;;;;;23.83;21.57;;;;;;;;;;5094523;28;20999;-63
2021/06/25 10:35:43;;;;;;;25.33;22.77;;;;;;;;;;5094260;28;20454;-63
2021/06/25 10:38:11;;;;;;;24.90;22.40;;;;;;;;;;5094684;28;20499;-63
2021/06/25 10:40:54;;;;;;;23.23;21.00;;;;;;;;;;5094765;28;20466;-63
2021/06/25 10:43:36;;;;;;;24.93;22.53;;;;;;;;;;5094882;28;20771;-62
2021/06/25 10:46:03;;;;;;;22.50;20.30;;;;;;;;;;5095250;28;20495;-63
2021/06/25 10:48:38;;;;;;;23.43;21.13;;;;;;;;;;5095418;28;20547;-63
2021/06/25 10:51:20;;;;;;;21.20;19.07;;;;;;;;;;5094562;28;20556;-63
2021/06/25 10:54:02;;;;;;;20.70;18.70;;;;;;;;;;5095326;28;20423;-61
2021/06/25 10:56:31;;;;;;;22.10;19.97;;;;;;;;;;5095404;28;20446;-62
2021/06/25 10:59:13;;;;;;;19.33;17.40;;;;;;;;;;5094803;28;20512;-61
2021/06/25 11:01:53;;;;;;;19.87;17.77;;;;;;;;;;5094587;28;20431;-63
2021/06/25 11:04:45;;;;;;;19.00;17.20;;;;;;;;;;5094931;28;20443;-63
2021/06/25 11:07:13;;;;;;;18.30;16.40;;;;;;;;;;5079034;28;20516;-61
2021/06/25 11:09:59;;;;;;;19.53;17.73;;;;;;;;;;5094645;28;20490;-62
2021/06/25 11:12:29;;;;;;;19.37;17.57;;;;;;;;;;5094068;28;20956;-62
2021/06/25 11:14:57;;;;;;;19.47;17.37;;;;;;;;;;5094794;28;20456;-61
2021/06/25 11:17:43;;;;;;;20.97;18.83;;;;;;;;;;5094280;28;20442;-61
2021/06/25 11:20:18;;;;;;;20.23;18.37;;;;;;;;;;5095816;28;20459;-63
2021/06/25 11:22:51;;;;;;;20.30;18.43;;;;;;;;;;5096046;28;20444;-61
2021/06/25 11:25:34;;;;;;;20.53;18.57;;;;;;;;;;5095829;28;20465;-63
2021/06/25 11:28:21;;;;;;;19.43;17.33;;;;;;;;;;5096037;28;20425;-63
2021/06/25 11:31:00;;;;;;;22.10;19.80;;;;;;;;;;5094451;28;20521;-61
2021/06/25 11:33:29;;;;;;;21.97;19.63;;;;;;;;;;5096128;28;20530;-62
2021/06/25 11:35:56;;;;;;;20.00;18.10;;;;;;;;;;5093859;28;20448;-61
2021/06/25 11:38:38;;;;;;;20.33;18.43;;;;;;;;;;5095787;28;20444;-60
2021/06/25 11:41:13;;;;;;;21.13;17.37;;;;;;;;;;5093357;28;20518;-61
2021/06/25 11:43:41;;;;;;;21.50;19.30;;;;;;;;;;5093578;28;20463;-61
2021/06/25 11:46:09;;;;;;;22.07;20.03;;;;;;;;;;5093270;28;20524;-62
2021/06/25 11:48:37;;;;;;;21.17;19.10;;;;;;;;;;5093875;28;20534;-63
2021/06/25 11:51:05;;;;;;;22.97;20.67;;;;;;;;;;5097680;28;20505;-63
2021/06/25 11:53:33;;;;;;;21.03;19.17;;;;;;;;;;5098636;28;20449;-62
2021/06/25 11:56:00;;;;;;;20.50;18.60;;;;;;;;;;5093635;28;20457;-59
2021/06/25 11:58:27;;;;;;;21.13;19.10;;;;;;;;;;5092918;28;20449;-62
2021/06/25 12:01:03;;;;;;;20.37;18.27;;;;;;;;;;5092900;28;20475;-63
2021/06/25 12:03:43;;;;;;;19.57;17.73;;;;;;;;;;5093179;28;20426;-59
2021/06/25 12:06:10;;;;;;;20.83;18.37;;;;;;;;;;5092767;28;20504;-60
2021/06/25 12:08:51;;;;;;;20.40;18.40;;;;;;;;;;5093227;28;20465;-61
2021/06/25 12:11:18;;;;;;;18.50;16.77;;;;;;;;;;5093088;28;20464;-61
2021/06/25 12:13:45;;;;;;;19.27;17.47;;;;;;;;;;5092936;28;20439;-62
2021/06/25 12:16:14;;;;;;;18.67;16.83;;;;;;;;;;5093023;28;20444;-62
2021/06/25 12:18:43;;;;;;;19.17;17.27;;;;;;;;;;5092667;28;20463;-62
2021/06/25 12:21:13;;;;;;;17.57;15.97;;;;;;;;;;5092479;28;20490;-61
2021/06/25 12:23:41;;;;;;;18.67;16.97;;;;;;;;;;5093700;28;20536;-62
2021/06/25 12:26:13;;;;;;;15.43;13.93;;;;;;;;;;5092842;28;20795;-63
2021/06/25 12:28:41;;;;;;;19.57;17.13;;;;;;;;;;5094439;28;21054;-62
2021/06/25 12:31:12;;;;;;;16.87;15.20;;;;;;;;;;5100721;28;20531;-62
2021/06/25 12:33:40;;;;;;;18.57;16.87;;;;;;;;;;5106248;28;20428;-62
2021/06/25 12:36:08;;;;;;;17.70;16.10;;;;;;;;;;5106447;28;20452;-61
2021/06/25 12:38:35;;;;;;;15.77;14.27;;;;;;;;;;5103946;28;20507;-61
2021/06/25 12:41:03;;;;;;;17.60;15.80;;;;;;;;;;5098747;28;20625;-63
2021/06/25 12:43:32;;;;;;;16.70;15.20;;;;;;;;;;5098229;28;20472;-61
2021/06/25 12:46:00;;;;;;;17.90;16.33;;;;;;;;;;5097304;28;20472;-61
2021/06/25 12:48:28;;;;;;;16.07;14.57;;;;;;;;;;5097919;28;20501;-62
2021/06/25 12:50:58;;;;;;;16.30;14.83;;;;;;;;;;5096454;28;20472;-62
2021/06/25 12:53:29;;;;;;;18.10;16.57;;;;;;;;;;5097046;28;20434;-62
2021/06/25 12:55:56;;;;;;;15.23;13.87;;;;;;;;;;5096534;28;20440;-62
2021/06/25 12:58:25;;;;;;;15.13;13.83;;;;;;;;;;5096681;28;20476;-62
2021/06/25 13:00:58;;;;;;;13.13;11.93;;;;;;;;;;5096739;28;20462;-62
2021/06/25 13:03:25;;;;;;;13.23;10.50;;;;;;;;;;5096596;28;20433;-62
2021/06/25 13:05:53;;;;;;;11.33;10.30;;;;;;;;;;5096333;28;20447;-63
2021/06/25 13:08:26;;;;;;;10.97;10.07;;;;;;;;;;5096665;28;20429;-62
2021/06/25 13:10:54;;;;;;;13.60;12.30;;;;;;;;;;5096319;28;20500;-62
2021/06/25 13:13:25;;;;;;;13.37;12.03;;;;;;;;;;5096461;28;20881;-62
2021/06/25 13:15:53;;;;;;;12.57;11.00;;;;;;;;;;5096388;28;20531;-63
2021/06/25 13:18:22;;;;;;;10.27;9.37;;;;;;;;;;5096540;28;20506;-63
2021/06/25 13:21:07;;;;;;;12.33;11.10;;;;;;;;;;5096647;28;20535;-62
2021/06/25 13:23:37;;;;;;;12.17;11.17;;;;;;;;;;5097120;28;20446;-61
2021/06/25 13:26:07;;;;;;;11.13;10.23;;;;;;;;;;5097512;28;20453;-62
2021/06/25 13:28:34;;;;;;;11.20;10.10;;;;;;;;;;5097103;28;20801;-61
2021/06/25 13:31:05;;;;;;;10.20;9.30;;;;;;;;;;5098871;28;20481;-62
2021/06/25 13:33:40;;;;;;;10.20;9.23;;;;;;;;;;5096266;28;20848;-61
2021/06/25 13:36:09;;;;;;;8.83;8.03;;;;;;;;;;5096758;28;20429;-61
2021/06/25 13:38:38;;;;;;;8.50;7.80;;;;;;;;;;5096720;28;20498;-61
2021/06/25 13:41:11;;;;;;;8.80;8.00;;;;;;;;;;5096897;28;20534;-60
2021/06/25 13:43:39;;;;;;;8.13;7.40;;;;;;;;;;5096630;28;20430;-61
2021/06/25 13:46:07;;;;;;;8.10;7.30;;;;;;;;;;5095931;28;20946;-62
2021/06/25 13:48:35;;;;;;;7.90;7.20;;;;;;;;;;5095700;28;20445;-62
2021/06/25 13:51:03;;;;;;;9.67;6.63;;;;;;;;;;5096142;28;20860;-61
2021/06/25 13:53:35;;;;;;;7.27;6.67;;;;;;;;;;5095922;28;21005;-60
2021/06/25 13:56:06;;;;;;;8.67;6.73;;;;;;;;;;5096923;28;20448;-62
2021/06/25 13:58:33;;;;;;;7.20;6.67;;;;;;;;;;5098854;28;20431;-59
2021/06/25 14:01:01;;;;;;;6.60;6.10;;;;;;;;;;5097215;28;20456;-61
2021/06/25 14:03:29;;;;;;;7.87;7.13;;;;;;;;;;5095970;28;20879;-62
2021/06/25 14:05:57;;;;;;;7.40;6.83;;;;;;;;;;5095605;28;20451;-62
2021/06/25 14:08:25;;;;;;;8.60;7.80;;;;;;;;;;5095383;28;20834;-62
2021/06/25 14:10:56;;;;;;;7.60;6.90;;;;;;;;;;5094991;28;20898;-60
2021/06/25 14:13:38;;;;;;;7.80;6.73;;;;;;;;;;5095026;28;20493;-62
2021/06/25 14:16:14;;;;;;;7.33;6.73;;;;;;;;;;5095171;28;20453;-62
2021/06/25 14:18:41;;;;;;;7.40;6.70;;;;;;;;;;5094694;28;20799;-62
2021/06/25 14:21:08;;;;;;;8.17;7.33;;;;;;;;;;5095419;28;20460;-62
2021/06/25 14:23:38;;;;;;;8.33;7.60;;;;;;;;;;5094890;28;20607;-62
2021/06/25 14:26:06;;;;;;;8.40;7.70;;;;;;;;;;5094902;28;20473;-61
2021/06/25 14:28:34;;;;;;;9.37;8.03;;;;;;;;;;5094606;28;20655;-62
2021/06/25 14:31:02;;;;;;;6.77;6.27;;;;;;;;;;5094588;28;20484;-61
2021/06/25 14:33:30;;;;;;;7.93;7.23;;;;;;;;;;5094720;28;20447;-63
2021/06/25 14:35:57;;;;;;;8.50;7.80;;;;;;;;;;5094195;28;20914;-62
2021/06/25 14:38:25;;;;;;;8.80;8.10;;;;;;;;;;5094204;28;20510;-63
2021/06/25 14:40:54;;;;;;;8.07;7.47;;;;;;;;;;5094782;28;20455;-63
2021/06/25 14:43:22;;;;;;;8.60;8.00;;;;;;;;;;5094838;28;20459;-62
2021/06/25 14:45:49;;;;;;;8.90;8.00;;;;;;;;;;5094729;28;20855;-62